createdAt,value
2019-05-23T00:00:39.302Z,1011.95
2019-05-23T00:01:38.478Z,1011.90
2019-05-23T00:03:38.302Z,1011.92
2019-05-23T00:04:38.331Z,1011.91
2019-05-23T00:05:38.467Z,1011.89
2019-05-23T00:06:38.550Z,1011.85
2019-05-23T00:07:38.182Z,1011.85
2019-05-23T00:08:38.159Z,1011.88
2019-05-23T00:09:38.131Z,1011.84
2019-05-23T00:10:38.213Z,1011.83
2019-05-23T00:12:38.369Z,1011.85
2019-05-23T00:13:38.172Z,1011.83
2019-05-23T00:15:38.194Z,1011.86
2019-05-23T00:16:37.981Z,1011.84
2019-05-23T00:17:38.882Z,1011.83
2019-05-23T00:18:38.295Z,1011.85
2019-05-23T00:22:37.974Z,1011.85
2019-05-23T00:23:37.881Z,1011.88
2019-05-23T00:24:38.371Z,1011.88
2019-05-23T00:25:37.818Z,1011.85
2019-05-23T00:26:37.764Z,1011.83
2019-05-23T00:28:37.759Z,1011.79
2019-05-23T00:29:40.387Z,1011.81
2019-05-23T00:30:38.451Z,1011.80
2019-05-23T00:33:37.611Z,1011.74
2019-05-23T00:35:37.789Z,1011.76
2019-05-23T00:36:37.983Z,1011.77
2019-05-23T00:37:37.517Z,1011.74
2019-05-23T00:43:37.834Z,1011.73
2019-05-23T00:44:37.473Z,1011.78
2019-05-23T00:45:37.428Z,1011.76
2019-05-23T00:46:37.392Z,1011.76
2019-05-23T00:47:37.465Z,1011.76
2019-05-23T00:48:37.653Z,1011.72
2019-05-23T00:49:37.382Z,1011.73
2019-05-23T00:51:37.689Z,1011.74
2019-05-23T00:52:40.282Z,1011.71
2019-05-23T00:53:37.407Z,1011.69
2019-05-23T00:57:37.106Z,1011.67
2019-05-23T00:58:37.551Z,1011.66
2019-05-23T00:59:37.009Z,1011.66
2019-05-23T01:00:37.474Z,1011.64
2019-05-23T01:01:38.025Z,1011.69
2019-05-23T01:02:36.965Z,1011.67
2019-05-23T01:03:37.431Z,1011.66
2019-05-23T01:04:36.913Z,1011.66
2019-05-23T01:05:37.409Z,1011.67
2019-05-23T01:06:36.936Z,1011.68
2019-05-23T01:07:37.375Z,1011.70
2019-05-23T01:08:37.191Z,1011.68
2019-05-23T01:09:36.960Z,1011.71
2019-05-23T01:10:36.868Z,1011.72
2019-05-23T01:13:37.241Z,1011.71
2019-05-23T01:14:36.706Z,1011.74
2019-05-23T01:15:36.708Z,1011.69
2019-05-23T01:19:36.720Z,1011.70
2019-05-23T01:20:36.928Z,1011.67
2019-05-23T01:21:36.581Z,1011.68
2019-05-23T01:22:36.551Z,1011.64
2019-05-23T01:23:36.731Z,1011.70
2019-05-23T01:24:36.508Z,1011.67
2019-05-23T01:25:36.574Z,1011.69
2019-05-23T01:28:36.755Z,1011.74
2019-05-23T01:29:49.943Z,1011.77
2019-05-23T01:30:36.323Z,1011.73
2019-05-23T01:31:36.522Z,1011.78
2019-05-23T01:32:36.352Z,1011.79
2019-05-23T01:33:36.439Z,1011.73
2019-05-23T01:34:36.884Z,1011.76
2019-05-23T01:35:36.425Z,1011.79
2019-05-23T01:37:36.409Z,1011.75
2019-05-23T01:38:36.186Z,1011.75
2019-05-23T01:39:36.083Z,1011.72
2019-05-23T01:40:36.366Z,1011.71
2019-05-23T01:41:36.040Z,1011.72
2019-05-23T01:42:36.029Z,1011.68
2019-05-23T01:43:36.144Z,1011.70
2019-05-23T01:49:36.230Z,1011.66
2019-05-23T01:50:35.931Z,1011.68
2019-05-23T01:51:35.993Z,1011.67
2019-05-23T01:52:37.001Z,1011.65
2019-05-23T01:53:35.833Z,1011.64
2019-05-23T01:56:35.949Z,1011.62
2019-05-23T01:57:35.771Z,1011.66
2019-05-23T01:58:35.983Z,1011.66
2019-05-23T01:59:48.525Z,1011.63
2019-05-23T02:00:35.657Z,1011.66
2019-05-23T02:03:35.768Z,1011.63
2019-05-23T02:05:35.897Z,1011.62
2019-05-23T02:06:38.590Z,1011.62
2019-05-23T02:07:35.619Z,1011.59
2019-05-23T02:08:35.678Z,1011.63
2019-05-23T02:09:35.439Z,1011.63
2019-05-23T02:10:35.457Z,1011.65
2019-05-23T02:11:35.636Z,1011.64
2019-05-23T02:12:35.781Z,1011.65
2019-05-23T02:13:35.375Z,1011.61
2019-05-23T02:14:35.412Z,1011.67
2019-05-23T02:15:35.381Z,1011.63
2019-05-23T02:16:35.260Z,1011.62
2019-05-23T02:17:35.239Z,1011.62
2019-05-23T02:18:35.248Z,1011.59
2019-05-23T02:20:35.623Z,1011.59
2019-05-23T02:22:35.186Z,1011.61
2019-05-23T02:23:35.154Z,1011.65
2019-05-23T02:28:35.139Z,1011.63
2019-05-23T02:29:55.185Z,1011.66
2019-05-23T02:30:36.186Z,1011.64
2019-05-23T02:31:35.710Z,1011.67
2019-05-23T02:32:34.987Z,1011.70
2019-05-23T02:33:35.672Z,1011.68
2019-05-23T02:34:35.479Z,1011.69
2019-05-23T02:35:34.942Z,1011.69
2019-05-23T02:36:35.084Z,1011.68
2019-05-23T02:37:34.760Z,1011.64
2019-05-23T02:39:35.079Z,1011.66
2019-05-23T02:40:34.762Z,1011.65
2019-05-23T02:41:35.051Z,1011.65
2019-05-23T02:42:34.800Z,1011.64
2019-05-23T02:43:34.787Z,1011.66
2019-05-23T02:44:34.700Z,1011.60
2019-05-23T02:46:34.700Z,1011.61
2019-05-23T02:47:34.787Z,1011.63
2019-05-23T02:52:34.479Z,1011.64
2019-05-23T02:53:34.457Z,1011.66
2019-05-23T02:54:37.267Z,1011.63
2019-05-23T02:57:34.291Z,1011.64
2019-05-23T02:59:34.358Z,1011.68
2019-05-23T03:00:52.404Z,1011.64
2019-05-23T03:03:34.182Z,1011.62
2019-05-23T03:05:34.303Z,1011.57
2019-05-23T03:07:34.432Z,1011.63
2019-05-23T03:10:34.698Z,1011.58
2019-05-23T03:13:34.410Z,1011.60
2019-05-23T03:14:34.038Z,1011.57
2019-05-23T03:15:33.961Z,1011.57
2019-05-23T03:16:33.883Z,1011.56
2019-05-23T03:17:34.062Z,1011.58
2019-05-23T03:18:34.864Z,1011.58
2019-05-23T03:20:33.841Z,1011.53
2019-05-23T03:22:33.765Z,1011.49
2019-05-23T03:25:33.926Z,1011.48
2019-05-23T03:27:33.601Z,1011.47
2019-05-23T03:28:33.545Z,1011.47
2019-05-23T03:29:33.580Z,1011.47
2019-05-23T03:30:33.851Z,1011.45
2019-05-23T03:31:33.838Z,1011.48
2019-05-23T03:32:38.660Z,1011.48
2019-05-23T03:33:33.549Z,1011.44
2019-05-23T03:35:33.829Z,1011.43
2019-05-23T03:37:33.699Z,1011.44
2019-05-23T03:39:33.352Z,1011.42
2019-05-23T03:40:33.496Z,1011.41
2019-05-23T03:41:33.477Z,1011.39
2019-05-23T03:44:33.559Z,1011.40
2019-05-23T03:45:33.191Z,1011.41
2019-05-23T03:46:33.113Z,1011.38
2019-05-23T03:47:33.293Z,1011.41
2019-05-23T03:48:33.085Z,1011.40
2019-05-23T03:53:33.054Z,1011.36
2019-05-23T03:54:32.938Z,1011.34
2019-05-23T03:55:33.075Z,1011.34
2019-05-23T03:56:33.177Z,1011.33
2019-05-23T03:57:33.024Z,1011.38
2019-05-23T03:59:32.930Z,1011.41
2019-05-23T04:01:46.666Z,1011.33
2019-05-23T04:02:32.779Z,1011.37
2019-05-23T04:03:32.983Z,1011.40
2019-05-23T04:06:32.682Z,1011.37
2019-05-23T04:07:32.694Z,1011.37
2019-05-23T04:11:33.650Z,1011.34
2019-05-23T04:12:32.823Z,1011.39
2019-05-23T04:14:32.473Z,1011.30
2019-05-23T04:16:32.437Z,1011.34
2019-05-23T04:17:32.589Z,1011.33
2019-05-23T04:18:32.831Z,1011.31
2019-05-23T04:19:32.402Z,1011.34
2019-05-23T04:21:32.485Z,1011.29
2019-05-23T04:25:32.568Z,1011.34
2019-05-23T04:26:32.186Z,1011.39
2019-05-23T04:28:32.185Z,1011.35
2019-05-23T04:29:32.114Z,1011.32
2019-05-23T04:32:32.898Z,1011.32
2019-05-23T04:33:32.333Z,1011.32
2019-05-23T04:38:35.792Z,1011.33
2019-05-23T04:39:32.271Z,1011.39
2019-05-23T04:41:32.122Z,1011.36
2019-05-23T04:42:32.642Z,1011.37
2019-05-23T04:43:31.956Z,1011.40
2019-05-23T04:44:31.929Z,1011.39
2019-05-23T04:45:32.151Z,1011.43
2019-05-23T04:46:32.187Z,1011.45
2019-05-23T04:47:31.989Z,1011.45
2019-05-23T04:48:31.950Z,1011.45
2019-05-23T04:51:32.384Z,1011.45
2019-05-23T04:52:31.730Z,1011.48
2019-05-23T04:53:31.618Z,1011.43
2019-05-23T04:55:31.720Z,1011.47
2019-05-23T04:56:31.631Z,1011.46
2019-05-23T04:58:31.770Z,1011.50
2019-05-23T04:59:31.430Z,1011.50
2019-05-23T05:00:31.425Z,1011.52
2019-05-23T05:01:31.453Z,1011.56
2019-05-23T05:02:31.446Z,1011.55
2019-05-23T05:03:31.398Z,1011.56
2019-05-23T05:04:31.330Z,1011.57
2019-05-23T05:05:31.638Z,1011.54
2019-05-23T05:06:31.322Z,1011.54
2019-05-23T05:08:31.298Z,1011.54
2019-05-23T05:09:32.271Z,1011.57
2019-05-23T05:10:31.227Z,1011.54
2019-05-23T05:11:31.175Z,1011.57
2019-05-23T05:12:31.573Z,1011.53
2019-05-23T05:13:31.146Z,1011.49
2019-05-23T05:14:31.128Z,1011.48
2019-05-23T05:15:31.677Z,1011.56
2019-05-23T05:16:31.310Z,1011.55
2019-05-23T05:17:31.053Z,1011.57
2019-05-23T05:18:31.050Z,1011.60
2019-05-23T05:19:31.312Z,1011.57
2019-05-23T05:21:31.103Z,1011.58
2019-05-23T05:22:30.979Z,1011.62
2019-05-23T05:23:31.002Z,1011.67
2019-05-23T05:24:30.906Z,1011.68
2019-05-23T05:25:30.916Z,1011.67
2019-05-23T05:26:31.217Z,1011.70
2019-05-23T05:27:31.058Z,1011.71
2019-05-23T05:28:31.088Z,1011.71
2019-05-23T05:30:30.781Z,1011.72
2019-05-23T05:31:30.771Z,1011.74
2019-05-23T05:32:44.068Z,1011.74
2019-05-23T05:33:32.364Z,1011.75
2019-05-23T05:34:30.708Z,1011.78
2019-05-23T05:35:30.689Z,1011.78
2019-05-23T05:36:30.734Z,1011.77
2019-05-23T05:37:30.689Z,1011.78
2019-05-23T05:38:30.693Z,1011.78
2019-05-23T05:39:30.637Z,1011.82
2019-05-23T05:40:30.602Z,1011.82
2019-05-23T05:41:30.827Z,1011.86
2019-05-23T05:42:30.686Z,1011.84
2019-05-23T05:43:30.536Z,1011.89
2019-05-23T05:44:30.629Z,1011.89
2019-05-23T05:45:30.621Z,1011.90
2019-05-23T05:46:30.802Z,1011.93
2019-05-23T05:47:30.548Z,1011.96
2019-05-23T05:48:30.451Z,1011.98
2019-05-23T05:49:30.531Z,1011.96
2019-05-23T05:50:30.451Z,1011.98
2019-05-23T05:51:30.711Z,1012.03
2019-05-23T05:52:32.122Z,1012.01
2019-05-23T05:53:30.550Z,1012.04
2019-05-23T05:54:30.357Z,1012.04
2019-05-23T05:55:31.048Z,1012.05
2019-05-23T05:56:30.389Z,1012.09
2019-05-23T05:57:30.286Z,1012.07
2019-05-23T05:58:30.531Z,1012.07
2019-05-23T05:59:30.781Z,1012.15
2019-05-23T06:00:30.267Z,1012.13
2019-05-23T06:01:33.877Z,1012.15
2019-05-23T06:02:30.889Z,1012.16
2019-05-23T06:03:30.660Z,1012.16
2019-05-23T06:05:30.479Z,1012.20
2019-05-23T06:06:30.781Z,1012.20
2019-05-23T06:07:30.383Z,1012.21
2019-05-23T06:08:30.131Z,1012.20
2019-05-23T06:09:30.033Z,1012.19
2019-05-23T06:10:30.153Z,1012.20
2019-05-23T06:11:30.303Z,1012.24
2019-05-23T06:12:29.992Z,1012.28
2019-05-23T06:14:30.077Z,1012.30
2019-05-23T06:15:29.920Z,1012.26
2019-05-23T06:16:29.914Z,1012.29
2019-05-23T06:18:30.167Z,1012.31
2019-05-23T06:19:30.354Z,1012.36
2019-05-23T06:20:29.868Z,1012.35
2019-05-23T06:21:29.790Z,1012.33
2019-05-23T06:22:29.840Z,1012.31
2019-05-23T06:23:29.766Z,1012.32
2019-05-23T06:24:45.146Z,1012.32
2019-05-23T06:25:30.029Z,1012.29
2019-05-23T06:26:29.966Z,1012.29
2019-05-23T06:28:29.719Z,1012.28
2019-05-23T06:29:29.748Z,1012.26
2019-05-23T06:30:32.713Z,1012.29
2019-05-23T06:31:29.644Z,1012.32
2019-05-23T06:32:29.715Z,1012.32
2019-05-23T06:33:29.867Z,1012.33
2019-05-23T06:34:29.572Z,1012.30
2019-05-23T06:36:29.603Z,1012.31
2019-05-23T06:37:34.034Z,1012.33
2019-05-23T06:38:29.854Z,1012.36
2019-05-23T06:39:29.512Z,1012.35
2019-05-23T06:40:29.535Z,1012.33
2019-05-23T06:41:29.511Z,1012.32
2019-05-23T06:42:29.527Z,1012.34
2019-05-23T06:43:29.687Z,1012.35
2019-05-23T06:44:29.682Z,1012.34
2019-05-23T06:45:29.670Z,1012.41
2019-05-23T06:46:29.435Z,1012.38
2019-05-23T06:47:29.419Z,1012.39
2019-05-23T06:48:29.515Z,1012.35
2019-05-23T06:49:29.340Z,1012.35
2019-05-23T06:50:29.481Z,1012.40
2019-05-23T06:51:29.277Z,1012.37
2019-05-23T06:52:29.557Z,1012.38
2019-05-23T06:53:29.958Z,1012.41
2019-05-23T06:54:29.391Z,1012.39
2019-05-23T06:55:29.232Z,1012.34
2019-05-23T06:56:29.538Z,1012.36
2019-05-23T06:57:33.055Z,1012.37
2019-05-23T06:58:29.271Z,1012.33
2019-05-23T06:59:29.490Z,1012.37
2019-05-23T07:00:29.127Z,1012.33
2019-05-23T07:01:29.137Z,1012.34
2019-05-23T07:02:32.009Z,1012.35
2019-05-23T07:03:41.852Z,1012.36
2019-05-23T07:04:29.036Z,1012.35
2019-05-23T07:05:32.387Z,1012.39
2019-05-23T07:06:29.286Z,1012.38
2019-05-23T07:07:29.037Z,1012.40
2019-05-23T07:08:29.149Z,1012.40
2019-05-23T07:09:28.965Z,1012.44
2019-05-23T07:10:28.976Z,1012.42
2019-05-23T07:11:28.964Z,1012.43
2019-05-23T07:12:29.209Z,1012.43
2019-05-23T07:13:28.995Z,1012.45
2019-05-23T07:14:29.040Z,1012.42
2019-05-23T07:15:28.855Z,1012.45
2019-05-23T07:16:28.907Z,1012.42
2019-05-23T07:18:29.284Z,1012.43
2019-05-23T07:19:28.819Z,1012.44
2019-05-23T07:20:28.864Z,1012.50
2019-05-23T07:21:30.257Z,1012.73
2019-05-23T07:22:33.867Z,1012.92
2019-05-23T07:23:29.063Z,1012.94
2019-05-23T07:24:30.444Z,1012.93
2019-05-23T07:25:28.683Z,1012.95
2019-05-23T07:26:30.124Z,1013.28
2019-05-23T07:27:28.734Z,1013.96
2019-05-23T07:28:28.654Z,1014.23
2019-05-23T07:29:28.637Z,1014.39
2019-05-23T07:30:28.958Z,1014.49
2019-05-23T07:32:28.580Z,1014.76
2019-05-23T07:34:35.453Z,1015.23
2019-05-23T07:35:28.546Z,1015.56
2019-05-23T07:36:29.002Z,1015.94
2019-05-23T07:37:28.697Z,1016.14
2019-05-23T07:38:28.489Z,1016.29
2019-05-23T07:40:28.451Z,1016.66
2019-05-23T07:41:30.288Z,1016.97
2019-05-23T07:42:28.907Z,1017.07
2019-05-23T07:43:28.407Z,1017.32
2019-05-23T07:44:28.559Z,1017.40
2019-05-23T07:45:28.590Z,1017.48
2019-05-23T07:46:28.384Z,1017.88
2019-05-23T07:47:28.484Z,1018.31
2019-05-23T07:48:28.966Z,1018.29
2019-05-23T07:49:28.449Z,1018.23
2019-05-23T07:50:28.372Z,1017.74
2019-05-23T07:51:29.819Z,1017.86
2019-05-23T07:52:28.305Z,1017.61
2019-05-23T07:53:28.301Z,1017.82
2019-05-23T07:54:29.764Z,1017.03
2019-05-23T07:56:28.307Z,1014.60
2019-05-23T07:57:28.353Z,1015.48
2019-05-23T07:58:28.734Z,1017.20
2019-05-23T07:59:28.242Z,1017.50
2019-05-23T08:00:28.495Z,1017.98
2019-05-23T08:01:28.188Z,1018.15
2019-05-23T08:02:28.497Z,1018.22
2019-05-23T08:04:28.166Z,1018.06
2019-05-23T08:05:28.444Z,1018.19
2019-05-23T08:06:28.221Z,1017.75
2019-05-23T08:07:32.277Z,1017.05
2019-05-23T08:08:28.116Z,1016.83
2019-05-23T08:10:33.821Z,1017.04
2019-05-23T08:11:28.068Z,1017.53
2019-05-23T08:12:28.106Z,1017.88
2019-05-23T08:13:28.064Z,1017.12
2019-05-23T08:14:28.088Z,1015.32
2019-05-23T08:15:28.070Z,1016.36
2019-05-23T08:16:28.345Z,1017.55
2019-05-23T08:17:28.025Z,1017.55
2019-05-23T08:18:28.039Z,1017.58
2019-05-23T08:19:28.015Z,1017.60
2019-05-23T08:20:27.988Z,1017.86
2019-05-23T08:21:27.984Z,1017.76
2019-05-23T08:22:28.037Z,1017.65
2019-05-23T08:24:28.296Z,1017.27
2019-05-23T08:25:27.940Z,1016.96
2019-05-23T08:26:27.950Z,1017.03
2019-05-23T08:27:27.944Z,1017.08
2019-05-23T08:28:28.108Z,1016.85
2019-05-23T08:29:28.021Z,1016.40
2019-05-23T08:30:27.961Z,1016.09
2019-05-23T08:31:28.627Z,1015.99
2019-05-23T08:32:27.875Z,1016.23
2019-05-23T08:33:27.920Z,1015.90
2019-05-23T08:34:40.697Z,1016.05
2019-05-23T08:35:27.858Z,1015.92
2019-05-23T08:36:27.886Z,1015.74
2019-05-23T08:37:27.825Z,1015.65
2019-05-23T08:38:28.337Z,1015.64
2019-05-23T08:39:28.342Z,1015.65
2019-05-23T08:40:28.185Z,1015.55
2019-05-23T08:41:27.797Z,1015.64
2019-05-23T08:42:28.081Z,1015.40
2019-05-23T08:43:27.810Z,1015.42
2019-05-23T08:44:28.101Z,1015.30
2019-05-23T08:45:27.844Z,1015.15
2019-05-23T08:46:27.780Z,1015.08
2019-05-23T08:47:27.766Z,1015.09
2019-05-23T08:48:27.797Z,1015.04
2019-05-23T08:49:27.759Z,1015.03
2019-05-23T08:50:29.494Z,1015.03
2019-05-23T08:51:27.726Z,1014.92
2019-05-23T08:52:27.733Z,1014.89
2019-05-23T08:53:27.777Z,1014.80
2019-05-23T08:54:28.027Z,1014.88
2019-05-23T08:55:27.873Z,1014.63
2019-05-23T08:56:28.004Z,1014.85
2019-05-23T08:57:27.722Z,1014.66
2019-05-23T08:58:27.713Z,1014.69
2019-05-23T08:59:27.861Z,1014.85
2019-05-23T09:00:27.901Z,1014.87
2019-05-23T09:01:27.636Z,1014.77
2019-05-23T09:02:27.936Z,1014.73
2019-05-23T09:04:27.638Z,1014.57
2019-05-23T09:05:27.624Z,1014.67
2019-05-23T09:07:27.749Z,1014.92
2019-05-23T09:08:28.193Z,1015.01
2019-05-23T09:09:29.986Z,1015.07
2019-05-23T09:10:27.599Z,1015.16
2019-05-23T09:11:27.626Z,1015.14
2019-05-23T09:12:27.881Z,1015.10
2019-05-23T09:13:27.580Z,1015.22
2019-05-23T09:14:27.893Z,1015.29
2019-05-23T09:15:27.777Z,1015.33
2019-05-23T09:16:27.638Z,1015.37
2019-05-23T09:18:27.998Z,1015.43
2019-05-23T09:19:27.553Z,1015.51
2019-05-23T09:20:27.869Z,1015.62
2019-05-23T09:24:28.386Z,1016.30
2019-05-23T09:25:27.550Z,1016.34
2019-05-23T09:26:27.826Z,1016.26
2019-05-23T09:28:27.604Z,1016.41
2019-05-23T09:29:27.514Z,1016.40
2019-05-23T09:30:27.577Z,1016.65
2019-05-23T09:31:27.605Z,1016.93
2019-05-23T09:32:27.489Z,1016.60
2019-05-23T09:33:27.870Z,1017.08
2019-05-23T09:34:27.480Z,1017.23
2019-05-23T09:35:27.497Z,1017.17
2019-05-23T09:36:28.118Z,1016.95
2019-05-23T09:37:27.581Z,1016.99
2019-05-23T09:38:27.957Z,1017.04
2019-05-23T09:40:28.228Z,1013.20
2019-05-23T09:41:27.801Z,1016.98
2019-05-23T09:44:27.655Z,1016.84
2019-05-23T09:45:28.556Z,1017.16
2019-05-23T09:46:27.676Z,1017.46
2019-05-23T09:47:27.880Z,1017.53
2019-05-23T09:48:27.743Z,1017.57
2019-05-23T09:49:27.433Z,1017.57
2019-05-23T09:50:28.989Z,1017.75
2019-05-23T09:51:27.860Z,1017.94
2019-05-23T09:52:27.491Z,1017.82
2019-05-23T09:53:27.413Z,1017.61
2019-05-23T09:54:28.351Z,1017.47
2019-05-23T09:55:27.724Z,1017.50
2019-05-23T09:59:27.431Z,1017.70
2019-05-23T10:00:27.402Z,1017.55
2019-05-23T10:01:27.935Z,1017.73
2019-05-23T10:02:28.330Z,1018.17
2019-05-23T10:05:41.998Z,1018.09
2019-05-23T10:06:29.404Z,1015.91
2019-05-23T10:10:31.402Z,1017.30
2019-05-23T10:12:30.185Z,1017.53
2019-05-23T10:13:38.542Z,1016.96
2019-05-23T10:15:28.084Z,1016.53
2019-05-23T10:17:30.946Z,1016.43
2019-05-23T10:18:29.588Z,1016.20
2019-05-23T10:19:28.693Z,1016.09
2019-05-23T10:20:27.418Z,1015.72
2019-05-23T10:21:27.333Z,1015.49
2019-05-23T10:22:27.369Z,1015.16
2019-05-23T10:23:27.380Z,1014.86
2019-05-23T10:24:27.698Z,1014.74
2019-05-23T10:25:27.318Z,1014.46
2019-05-23T10:27:27.336Z,1014.18
2019-05-23T10:28:27.341Z,1013.58
2019-05-23T10:30:27.739Z,1012.96
2019-05-23T10:31:27.325Z,1012.48
2019-05-23T10:32:27.332Z,1012.55
2019-05-23T10:33:27.360Z,1012.40
2019-05-23T10:34:27.311Z,1012.42
2019-05-23T10:35:27.408Z,1012.38
2019-05-23T10:36:27.306Z,1012.34
2019-05-23T10:37:27.303Z,1012.43
2019-05-23T10:38:29.472Z,1012.46
2019-05-23T10:39:27.298Z,1012.90
2019-05-23T10:40:27.308Z,1012.55
2019-05-23T10:41:27.332Z,1012.59
2019-05-23T10:42:27.737Z,1012.85
2019-05-23T10:43:27.331Z,1012.83
2019-05-23T10:44:27.381Z,1012.74
2019-05-23T10:45:27.283Z,1012.78
2019-05-23T10:46:28.784Z,1012.55
2019-05-23T10:47:27.302Z,1012.87
2019-05-23T10:48:27.992Z,1012.91
2019-05-23T10:49:27.247Z,1013.01
2019-05-23T10:50:43.708Z,1013.06
2019-05-23T10:51:27.240Z,1013.04
2019-05-23T10:52:27.242Z,1012.89
2019-05-23T10:53:27.449Z,1013.22
2019-05-23T10:54:28.539Z,1012.37
2019-05-23T10:56:27.287Z,1012.91
2019-05-23T10:57:27.238Z,1013.29
2019-05-23T10:58:27.270Z,1013.22
2019-05-23T10:59:27.271Z,1013.24
2019-05-23T11:00:27.885Z,1013.30
2019-05-23T11:01:27.787Z,1013.30
2019-05-23T11:02:27.370Z,1013.28
2019-05-23T11:03:27.263Z,1013.31
2019-05-23T11:04:27.281Z,1013.27
2019-05-23T11:06:28.649Z,1013.22
2019-05-23T11:08:30.361Z,1013.14
2019-05-23T11:09:37.455Z,1013.16
2019-05-23T11:10:28.502Z,1013.22
2019-05-23T11:11:27.614Z,1012.08
2019-05-23T11:12:27.197Z,1012.06
2019-05-23T11:13:27.539Z,1012.03
2019-05-23T11:14:27.197Z,1012.10
2019-05-23T11:15:27.195Z,1012.19
2019-05-23T11:16:27.260Z,1012.49
2019-05-23T11:18:27.191Z,1012.13
2019-05-23T11:19:28.318Z,1012.00
2019-05-23T11:20:28.036Z,1012.01
2019-05-23T11:21:27.190Z,1011.99
2019-05-23T11:22:34.116Z,1012.01
2019-05-23T11:23:27.473Z,1012.01
2019-05-23T11:24:27.155Z,1013.11
2019-05-23T11:25:27.191Z,1012.98
2019-05-23T11:26:28.025Z,1013.11
2019-05-23T11:27:27.764Z,1013.10
2019-05-23T11:29:29.000Z,1012.02
2019-05-23T11:30:28.015Z,1012.00
2019-05-23T11:31:27.298Z,1012.00
2019-05-23T11:32:27.686Z,1012.03
2019-05-23T11:33:27.149Z,1012.30
2019-05-23T11:34:27.467Z,1013.07
2019-05-23T11:35:27.118Z,1012.63
2019-05-23T11:36:35.356Z,1013.24
2019-05-23T11:37:27.073Z,1013.24
2019-05-23T11:38:28.731Z,1013.15
2019-05-23T11:39:27.147Z,1013.07
2019-05-23T11:43:27.089Z,1011.97
2019-05-23T11:45:27.054Z,1011.96
2019-05-23T11:46:28.942Z,1013.19
2019-05-23T11:48:27.341Z,1012.18
2019-05-23T11:49:27.830Z,1013.05
2019-05-23T11:50:26.994Z,1013.02
2019-05-23T11:51:27.124Z,1013.08
2019-05-23T11:52:28.386Z,1013.12
2019-05-23T11:53:27.032Z,1013.08
2019-05-23T11:54:27.012Z,1013.08
2019-05-23T11:56:27.419Z,1013.02
2019-05-23T11:57:27.416Z,1012.99
2019-05-23T11:58:27.023Z,1012.94
2019-05-23T11:59:26.955Z,1012.87
2019-05-23T12:00:27.122Z,1012.83
2019-05-23T12:01:27.003Z,1012.81
2019-05-23T12:02:28.617Z,1012.74
2019-05-23T12:03:27.588Z,1012.67
2019-05-23T12:04:27.070Z,1012.70
2019-05-23T12:05:27.112Z,1012.59
2019-05-23T12:06:26.990Z,1012.53
2019-05-23T12:07:27.009Z,1011.92
2019-05-23T12:08:28.696Z,1012.48
2019-05-23T12:10:27.281Z,1012.14
2019-05-23T12:15:27.280Z,1011.55
2019-05-23T12:16:26.932Z,1011.57
2019-05-23T12:17:27.072Z,1011.58
2019-05-23T12:18:26.938Z,1011.55
2019-05-23T12:24:27.198Z,1011.61
2019-05-23T12:25:26.968Z,1011.58
2019-05-23T12:26:26.967Z,1011.56
2019-05-23T12:29:26.893Z,1012.16
2019-05-23T12:30:28.220Z,1012.13
2019-05-23T12:31:26.906Z,1012.03
2019-05-23T12:32:26.854Z,1012.08
2019-05-23T12:33:27.017Z,1012.05
2019-05-23T12:34:26.995Z,1011.96
2019-05-23T12:35:26.845Z,1011.93
2019-05-23T12:36:27.210Z,1011.94
2019-05-23T12:37:26.907Z,1011.91
2019-05-23T12:38:26.950Z,1011.83
2019-05-23T12:39:26.937Z,1011.91
2019-05-23T12:40:27.132Z,1011.87
2019-05-23T12:41:27.577Z,1011.85
2019-05-23T12:42:27.188Z,1011.48
2019-05-23T12:44:26.861Z,1011.81
2019-05-23T12:45:26.821Z,1011.79
2019-05-23T12:46:26.873Z,1011.79
2019-05-23T12:48:26.862Z,1011.68
2019-05-23T12:49:27.168Z,1011.61
2019-05-23T12:51:26.935Z,1011.55
2019-05-23T12:52:26.846Z,1011.53
2019-05-23T12:53:26.805Z,1011.69
2019-05-23T12:54:26.820Z,1011.74
2019-05-23T12:56:27.113Z,1011.74
2019-05-23T12:57:26.800Z,1011.71
2019-05-23T12:58:27.123Z,1011.64
2019-05-23T12:59:26.851Z,1011.63
2019-05-23T13:00:26.814Z,1011.61
2019-05-23T13:01:26.788Z,1011.57
2019-05-23T13:02:26.856Z,1011.50
2019-05-23T13:03:27.155Z,1011.61
2019-05-23T13:05:27.028Z,1011.49
2019-05-23T13:06:26.788Z,1011.56
2019-05-23T13:07:35.639Z,1011.62
2019-05-23T13:08:26.832Z,1011.62
2019-05-23T13:09:26.829Z,1011.60
2019-05-23T13:11:27.056Z,1011.57
2019-05-23T13:12:27.624Z,1011.59
2019-05-23T13:13:26.787Z,1011.56
2019-05-23T13:14:26.950Z,1011.60
2019-05-23T13:15:26.921Z,1011.58
2019-05-23T13:16:27.520Z,1011.53
2019-05-23T13:17:27.374Z,1011.53
2019-05-23T13:19:26.990Z,1011.59
2019-05-23T13:20:26.847Z,1011.56
2019-05-23T13:21:26.782Z,1011.50
2019-05-23T13:24:26.789Z,1011.51
2019-05-23T13:25:26.783Z,1011.48
2019-05-23T13:26:26.783Z,1011.51
2019-05-23T13:27:26.844Z,1011.52
2019-05-23T13:28:26.855Z,1011.53
2019-05-23T13:29:27.991Z,1011.53
2019-05-23T13:30:29.297Z,1011.50
2019-05-23T13:31:27.284Z,1011.47
2019-05-23T13:32:27.169Z,1011.48
2019-05-23T13:33:26.775Z,1011.37
2019-05-23T13:34:27.306Z,1011.44
2019-05-23T13:35:28.437Z,1011.44
2019-05-23T13:36:26.826Z,1011.52
2019-05-23T13:37:27.071Z,1011.50
2019-05-23T13:38:27.469Z,1011.49
2019-05-23T13:39:26.765Z,1011.48
2019-05-23T13:40:26.909Z,1011.47
2019-05-23T13:42:27.323Z,1011.41
2019-05-23T13:43:26.797Z,1011.40
2019-05-23T13:44:33.370Z,1011.41
2019-05-23T13:47:26.789Z,1011.22
2019-05-23T13:48:28.207Z,1011.33
2019-05-23T13:49:28.220Z,1011.07
2019-05-23T13:50:32.493Z,1011.26
2019-05-23T13:51:26.766Z,1011.36
2019-05-23T13:52:26.883Z,1011.26
2019-05-23T13:55:27.274Z,1011.21
2019-05-23T13:56:26.816Z,1011.16
2019-05-23T13:57:27.469Z,1011.26
2019-05-23T13:59:26.842Z,1011.15
2019-05-23T14:00:26.867Z,1011.11
2019-05-23T14:02:26.790Z,1011.23
2019-05-23T14:03:26.870Z,1011.13
2019-05-23T14:04:26.925Z,1010.91
2019-05-23T14:05:26.799Z,1010.91
2019-05-23T14:06:26.976Z,1011.10
2019-05-23T14:07:27.299Z,1010.96
2019-05-23T14:08:26.760Z,1010.94
2019-05-23T14:09:26.793Z,1011.03
2019-05-23T14:10:26.747Z,1010.99
2019-05-23T14:11:26.738Z,1010.92
2019-05-23T14:12:27.078Z,1011.11
2019-05-23T14:14:28.018Z,1011.00
2019-05-23T14:15:27.659Z,1011.02
2019-05-23T14:17:26.754Z,1011.04
2019-05-23T14:18:26.865Z,1010.99
2019-05-23T14:19:29.503Z,1010.78
2019-05-23T14:21:27.541Z,1010.83
2019-05-23T14:22:26.707Z,1010.83
2019-05-23T14:23:27.373Z,1010.72
2019-05-23T14:24:26.928Z,1010.74
2019-05-23T14:25:27.206Z,1010.73
2019-05-23T14:27:27.177Z,1010.73
2019-05-23T14:28:27.258Z,1010.77
2019-05-23T14:29:27.958Z,1010.78
2019-05-23T14:30:27.961Z,1010.78
2019-05-23T14:31:28.617Z,1010.84
2019-05-23T14:32:28.153Z,1010.99
2019-05-23T14:33:26.716Z,1010.77
2019-05-23T14:34:26.905Z,1010.77
2019-05-23T14:35:27.565Z,1010.78
2019-05-23T14:36:31.439Z,1010.96
2019-05-23T14:37:26.924Z,1010.92
2019-05-23T14:38:30.874Z,1010.89
2019-05-23T14:39:26.633Z,1010.78
2019-05-23T14:40:27.578Z,1010.68
2019-05-23T14:41:43.757Z,1010.61
2019-05-23T14:42:26.670Z,1010.62
2019-05-23T14:43:26.994Z,1010.58
2019-05-23T14:44:27.087Z,1010.57
2019-05-23T14:45:26.897Z,1010.57
2019-05-23T14:46:26.823Z,1010.55
2019-05-23T14:47:26.804Z,1010.50
2019-05-23T14:48:26.713Z,1010.50
2019-05-23T14:49:28.533Z,1010.47
2019-05-23T14:52:26.866Z,1010.44
2019-05-23T14:53:26.553Z,1010.45
2019-05-23T14:54:26.649Z,1010.46
2019-05-23T14:55:26.761Z,1010.49
2019-05-23T14:57:26.532Z,1010.44
2019-05-23T14:58:26.718Z,1010.43
2019-05-23T14:59:27.154Z,1010.42
2019-05-23T15:00:26.926Z,1010.45
2019-05-23T15:01:28.449Z,1010.42
2019-05-23T15:02:26.496Z,1010.38
2019-05-23T15:03:26.578Z,1010.42
2019-05-23T15:04:26.709Z,1010.41
2019-05-23T15:05:26.483Z,1010.44
2019-05-23T15:06:26.910Z,1010.46
2019-05-23T15:07:26.741Z,1010.45
2019-05-23T15:08:26.541Z,1010.46
2019-05-23T15:09:26.432Z,1010.37